Time;durP1;ratioP1;P1;durP2;ratioP2;P2;SDS_P1;SDS_P2;PMS_P1;PMS_P2;Temp;Humidity;BMP_temperature;BMP_pressure;BME280_temperature;BME280_humidity;BME280_pressure;Samples;Min_cycle;Max_cycle;Signal;HPM_P1;HPM_P2
2023/12/05 00:01:02;;;;;;;62.63;52.72;;;;;;;;;;5059611;28;20403;-73
2023/12/05 00:03:27;;;;;;;52.97;44.45;;;;;;;;;;5047848;28;20029;-73
2023/12/05 00:05:52;;;;;;;40.25;32.75;;;;;;;;;;5057728;28;20088;-73
2023/12/05 00:08:18;;;;;;;50.83;41.90;;;;;;;;;;5058113;28;20048;-72
2023/12/05 00:10:44;;;;;;;50.78;44.72;;;;;;;;;;5059640;28;20028;-72
2023/12/05 00:13:10;;;;;;;54.03;46.80;;;;;;;;;;5059351;28;20020;-72
2023/12/05 00:15:36;;;;;;;46.97;38.70;;;;;;;;;;5058924;28;20340;-73
2023/12/05 00:18:01;;;;;;;66.45;54.28;;;;;;;;;;5058856;28;20094;-73
2023/12/05 00:20:26;;;;;;;134.10;101.72;;;;;;;;;;5058757;28;20051;-72
2023/12/05 00:22:52;;;;;;;151.65;113.22;;;;;;;;;;5057911;28;20031;-72
2023/12/05 00:25:18;;;;;;;153.05;108.82;;;;;;;;;;5059839;28;20028;-72
2023/12/05 00:27:44;;;;;;;145.45;112.40;;;;;;;;;;5058808;28;20050;-72
2023/12/05 00:30:09;;;;;;;117.13;89.15;;;;;;;;;;5059533;28;20112;-71
2023/12/05 00:32:34;;;;;;;67.70;52.28;;;;;;;;;;5059893;28;20028;-74
2023/12/05 00:35:00;;;;;;;54.80;42.90;;;;;;;;;;5059262;28;20029;-73
2023/12/05 00:37:25;;;;;;;44.65;36.05;;;;;;;;;;5059258;28;20032;-73
2023/12/05 00:39:50;;;;;;;47.05;37.05;;;;;;;;;;5058410;28;20459;-73
2023/12/05 00:42:16;;;;;;;53.03;41.80;;;;;;;;;;5050009;28;20067;-74
2023/12/05 00:44:41;;;;;;;47.55;39.15;;;;;;;;;;5062366;28;20027;-72
2023/12/05 00:47:06;;;;;;;41.25;35.13;;;;;;;;;;5062886;28;20101;-72
2023/12/05 00:49:34;;;;;;;37.25;31.17;;;;;;;;;;5062748;28;20028;-72
2023/12/05 00:51:59;;;;;;;38.83;31.58;;;;;;;;;;5062694;28;20025;-74
2023/12/05 00:54:25;;;;;;;41.13;34.28;;;;;;;;;;5062027;28;20043;-74
2023/12/05 00:56:50;;;;;;;53.58;42.65;;;;;;;;;;5061672;28;20373;-75
2023/12/05 00:59:15;;;;;;;44.63;36.85;;;;;;;;;;5062789;28;20099;-75
2023/12/05 01:01:41;;;;;;;48.60;37.45;;;;;;;;;;5060724;28;20020;-74
2023/12/05 01:04:06;;;;;;;74.53;55.83;;;;;;;;;;5062019;28;20024;-72
2023/12/05 01:06:31;;;;;;;90.75;64.18;;;;;;;;;;5058173;28;20487;-73
2023/12/05 01:08:57;;;;;;;94.03;68.78;;;;;;;;;;5056894;28;20507;-73
2023/12/05 01:11:22;;;;;;;81.50;62.47;;;;;;;;;;5061867;28;20028;-75
2023/12/05 01:13:50;;;;;;;78.03;60.15;;;;;;;;;;5063034;28;20024;-74
2023/12/05 01:16:18;;;;;;;76.15;57.60;;;;;;;;;;5049629;28;20115;-74
2023/12/05 01:18:43;;;;;;;75.65;61.40;;;;;;;;;;5048835;28;20031;-73
2023/12/05 01:21:09;;;;;;;78.50;61.88;;;;;;;;;;5050901;28;20095;-73
2023/12/05 01:23:34;;;;;;;77.65;59.00;;;;;;;;;;5062098;28;20036;-72
2023/12/05 01:25:59;;;;;;;68.82;55.53;;;;;;;;;;5062480;28;20038;-72
2023/12/05 01:28:25;;;;;;;75.20;57.13;;;;;;;;;;5062120;28;20074;-71
2023/12/05 01:30:50;;;;;;;68.63;53.75;;;;;;;;;;5062183;28;20087;-71
2023/12/05 01:33:15;;;;;;;58.40;46.22;;;;;;;;;;5062301;28;20040;-72
2023/12/05 01:35:41;;;;;;;56.97;43.53;;;;;;;;;;5061986;28;20040;-71
2023/12/05 01:38:06;;;;;;;54.97;42.55;;;;;;;;;;5062289;28;20033;-72
2023/12/05 01:40:32;;;;;;;113.03;81.85;;;;;;;;;;5063718;28;20426;-72
2023/12/05 01:42:57;;;;;;;163.15;127.60;;;;;;;;;;5062003;28;20447;-72
2023/12/05 01:45:22;;;;;;;167.77;126.93;;;;;;;;;;5061924;28;20030;-72
2023/12/05 01:47:48;;;;;;;152.65;109.47;;;;;;;;;;5061786;28;20052;-72
2023/12/05 01:50:15;;;;;;;120.35;88.13;;;;;;;;;;5061826;28;20079;-73
2023/12/05 01:52:45;;;;;;;155.63;103.75;;;;;;;;;;5052281;28;20036;-72
2023/12/05 01:55:10;;;;;;;153.40;105.80;;;;;;;;;;5061596;28;20150;-72
2023/12/05 01:57:36;;;;;;;137.32;97.50;;;;;;;;;;5060652;28;20139;-72
2023/12/05 02:00:02;;;;;;;142.00;103.55;;;;;;;;;;5060516;28;20028;-72
2023/12/05 02:02:27;;;;;;;138.52;99.70;;;;;;;;;;5054126;28;20031;-72
2023/12/05 02:04:52;;;;;;;127.78;97.05;;;;;;;;;;5057868;28;20020;-71
2023/12/05 02:07:18;;;;;;;100.28;81.25;;;;;;;;;;5060974;28;20429;-72
2023/12/05 02:09:44;;;;;;;92.95;72.38;;;;;;;;;;5060929;28;20025;-71
2023/12/05 02:12:09;;;;;;;98.63;76.53;;;;;;;;;;5051412;28;20119;-72
2023/12/05 02:14:35;;;;;;;84.47;70.32;;;;;;;;;;5059334;28;20107;-72
2023/12/05 02:17:03;;;;;;;75.63;58.13;;;;;;;;;;5060716;28;20036;-74
2023/12/05 02:19:38;;;;;;;88.05;63.35;;;;;;;;;;5054414;28;20471;-71
2023/12/05 02:22:07;;;;;;;77.10;62.40;;;;;;;;;;5057398;28;20032;-72
2023/12/05 02:24:44;;;;;;;71.80;55.92;;;;;;;;;;5059903;28;20037;-71
2023/12/05 02:27:17;;;;;;;65.32;52.42;;;;;;;;;;5060857;28;20069;-71
2023/12/05 02:29:49;;;;;;;76.57;59.47;;;;;;;;;;5060917;28;20047;-73
2023/12/05 02:32:14;;;;;;;83.78;69.28;;;;;;;;;;5060264;28;20111;-72
2023/12/05 02:34:39;;;;;;;94.13;76.85;;;;;;;;;;5044011;28;20494;-72
2023/12/05 02:37:15;;;;;;;87.78;72.78;;;;;;;;;;5057499;28;20454;-72
2023/12/05 02:39:45;;;;;;;69.20;55.08;;;;;;;;;;5059922;28;20086;-72
2023/12/05 02:42:12;;;;;;;69.10;55.88;;;;;;;;;;5060353;28;20031;-71
2023/12/05 02:44:44;;;;;;;75.68;59.88;;;;;;;;;;5060150;28;20065;-71
2023/12/05 02:47:12;;;;;;;71.22;55.25;;;;;;;;;;5059123;28;20031;-72
2023/12/05 02:49:37;;;;;;;74.47;57.53;;;;;;;;;;5059803;28;20032;-71
2023/12/05 02:52:03;;;;;;;66.95;51.80;;;;;;;;;;5060103;28;20121;-73
2023/12/05 02:54:28;;;;;;;80.15;61.28;;;;;;;;;;5060563;28;20021;-71
2023/12/05 02:56:53;;;;;;;78.65;61.00;;;;;;;;;;5060063;28;20040;-71
2023/12/05 02:59:19;;;;;;;79.53;64.32;;;;;;;;;;5060032;28;20028;-73
2023/12/05 03:01:44;;;;;;;63.50;51.97;;;;;;;;;;5059456;28;20946;-72
2023/12/05 03:04:09;;;;;;;63.00;50.30;;;;;;;;;;5060111;28;20035;-71
2023/12/05 03:06:35;;;;;;;69.63;54.72;;;;;;;;;;5059419;28;20052;-71
2023/12/05 03:09:03;;;;;;;74.40;61.15;;;;;;;;;;5058760;28;20618;-73
2023/12/05 03:11:28;;;;;;;71.70;57.60;;;;;;;;;;5059457;28;20043;-71
2023/12/05 03:13:54;;;;;;;97.47;72.75;;;;;;;;;;5060091;28;20738;-72
2023/12/05 03:16:19;;;;;;;104.55;79.70;;;;;;;;;;5051631;28;20025;-71
2023/12/05 03:18:44;;;;;;;104.93;78.25;;;;;;;;;;5057003;28;20047;-72
2023/12/05 03:21:14;;;;;;;93.25;73.65;;;;;;;;;;5060076;28;20024;-71
2023/12/05 03:23:39;;;;;;;;;;;;;;;;;;5060370;28;20046;-72
2023/12/05 03:26:05;;;;;;;75.10;57.10;;;;;;;;;;5045355;28;19912;-73
2023/12/05 03:28:30;;;;;;;59.88;50.53;;;;;;;;;;5059523;28;20388;-73
2023/12/05 03:30:56;;;;;;;87.05;65.00;;;;;;;;;;5060430;28;20037;-72
2023/12/05 03:33:21;;;;;;;71.30;50.38;;;;;;;;;;5059469;28;20120;-72
2023/12/05 03:35:46;;;;;;;62.97;48.85;;;;;;;;;;5059747;28;20028;-73
2023/12/05 03:38:12;;;;;;;63.65;51.70;;;;;;;;;;5060251;28;21100;-73
2023/12/05 03:40:37;;;;;;;74.32;57.22;;;;;;;;;;5058842;28;20427;-73
2023/12/05 03:43:02;;;;;;;81.13;62.05;;;;;;;;;;5050326;28;20396;-73
2023/12/05 03:45:27;;;;;;;90.40;71.65;;;;;;;;;;5044185;28;20409;-73
2023/12/05 03:47:53;;;;;;;92.65;70.72;;;;;;;;;;5059090;28;20412;-73
2023/12/05 03:50:18;;;;;;;90.82;72.90;;;;;;;;;;5050144;28;20451;-73
2023/12/05 03:52:43;;;;;;;93.03;75.18;;;;;;;;;;5059718;28;20086;-72
2023/12/05 03:55:09;;;;;;;89.55;70.95;;;;;;;;;;5059710;28;20082;-71
2023/12/05 03:57:34;;;;;;;88.55;71.68;;;;;;;;;;5059137;28;20035;-73
2023/12/05 03:59:59;;;;;;;92.20;72.30;;;;;;;;;;5058464;28;20115;-72
2023/12/05 04:02:25;;;;;;;91.53;71.00;;;;;;;;;;5048793;28;20115;-73
2023/12/05 04:04:50;;;;;;;87.10;67.90;;;;;;;;;;5058943;28;20116;-73
2023/12/05 04:07:15;;;;;;;79.95;61.42;;;;;;;;;;5048738;28;20170;-72
2023/12/05 04:09:41;;;;;;;79.30;62.22;;;;;;;;;;5059495;28;20028;-72
2023/12/05 04:12:06;;;;;;;72.95;55.28;;;;;;;;;;5059246;28;20028;-72
2023/12/05 04:14:31;;;;;;;69.80;55.20;;;;;;;;;;5058845;28;20086;-71
2023/12/05 04:16:57;;;;;;;68.78;52.17;;;;;;;;;;5059676;28;20107;-71
2023/12/05 04:19:22;;;;;;;60.70;49.75;;;;;;;;;;5062740;28;20029;-73
2023/12/05 04:21:47;;;;;;;57.42;46.10;;;;;;;;;;5062619;28;20024;-73
2023/12/05 04:24:13;;;;;;;60.15;46.13;;;;;;;;;;5062391;28;20099;-71
2023/12/05 04:26:38;;;;;;;61.50;47.78;;;;;;;;;;5062383;28;20173;-71
2023/12/05 04:29:04;;;;;;;54.17;45.53;;;;;;;;;;5062878;28;20123;-71
2023/12/05 04:31:29;;;;;;;55.45;44.42;;;;;;;;;;5061385;28;20024;-71
2023/12/05 04:33:55;;;;;;;56.65;45.78;;;;;;;;;;5062320;28;20021;-71
2023/12/05 04:36:23;;;;;;;55.75;44.75;;;;;;;;;;5055178;28;20028;-70
2023/12/05 04:38:49;;;;;;;55.90;44.50;;;;;;;;;;5059508;28;20025;-73
2023/12/05 04:41:14;;;;;;;55.40;45.92;;;;;;;;;;5062714;28;20024;-73
2023/12/05 04:43:40;;;;;;;56.75;44.35;;;;;;;;;;5062009;28;20377;-74
2023/12/05 04:46:05;;;;;;;52.00;44.33;;;;;;;;;;5062581;28;20028;-72
2023/12/05 04:48:31;;;;;;;55.33;44.65;;;;;;;;;;5061725;28;20060;-72
2023/12/05 04:50:56;;;;;;;59.92;47.38;;;;;;;;;;5062714;28;20344;-73
2023/12/05 04:53:21;;;;;;;59.67;49.15;;;;;;;;;;5062761;28;20020;-73
2023/12/05 04:55:47;;;;;;;58.67;48.00;;;;;;;;;;5062426;28;20154;-72
2023/12/05 04:58:12;;;;;;;56.17;43.80;;;;;;;;;;5062535;28;20700;-72
2023/12/05 05:00:37;;;;;;;54.78;46.45;;;;;;;;;;5060468;28;20067;-72
2023/12/05 05:03:03;;;;;;;58.58;48.05;;;;;;;;;;5043872;28;20031;-71
2023/12/05 05:05:29;;;;;;;66.72;53.03;;;;;;;;;;5061601;28;20024;-71
2023/12/05 05:07:54;;;;;;;131.60;107.13;;;;;;;;;;5060639;28;20052;-71
2023/12/05 05:10:19;;;;;;;83.63;68.22;;;;;;;;;;5061981;28;20024;-72
2023/12/05 05:12:45;;;;;;;62.75;52.10;;;;;;;;;;5063022;28;20103;-73
2023/12/05 05:15:10;;;;;;;59.45;49.20;;;;;;;;;;5062670;28;20566;-73
2023/12/05 05:17:35;;;;;;;61.15;46.17;;;;;;;;;;5062353;28;20028;-73
2023/12/05 05:20:01;;;;;;;105.15;81.38;;;;;;;;;;5062479;28;20082;-72
2023/12/05 05:22:26;;;;;;;73.90;60.33;;;;;;;;;;5052816;28;20090;-71
2023/12/05 05:24:51;;;;;;;75.10;60.42;;;;;;;;;;5059668;28;20037;-72
2023/12/05 05:27:17;;;;;;;93.68;77.22;;;;;;;;;;5061680;28;20039;-71
2023/12/05 05:29:42;;;;;;;85.40;69.57;;;;;;;;;;5061858;28;20028;-72
2023/12/05 05:32:07;;;;;;;96.18;82.35;;;;;;;;;;5061082;28;20036;-73
2023/12/05 05:34:33;;;;;;;90.30;74.15;;;;;;;;;;5060866;28;20043;-72
2023/12/05 05:36:58;;;;;;;79.20;68.43;;;;;;;;;;5061467;28;20036;-71
2023/12/05 05:39:23;;;;;;;73.13;60.55;;;;;;;;;;5061313;28;20048;-71
2023/12/05 05:41:49;;;;;;;74.28;62.38;;;;;;;;;;5061758;28;20431;-71
2023/12/05 05:44:14;;;;;;;69.95;58.45;;;;;;;;;;5061523;28;20436;-71
2023/12/05 05:46:39;;;;;;;64.53;53.92;;;;;;;;;;5061281;28;20025;-72
2023/12/05 05:49:05;;;;;;;68.53;60.50;;;;;;;;;;5062073;28;20439;-71
2023/12/05 05:51:30;;;;;;;67.70;56.22;;;;;;;;;;5061576;28;20355;-72
2023/12/05 05:53:58;;;;;;;64.22;54.88;;;;;;;;;;5062115;28;20032;-72
2023/12/05 05:56:23;;;;;;;66.85;53.83;;;;;;;;;;5061228;28;20058;-71
2023/12/05 05:58:48;;;;;;;70.30;57.15;;;;;;;;;;5061791;28;20501;-75
2023/12/05 06:01:14;;;;;;;74.03;59.33;;;;;;;;;;5062068;28;20405;-74
2023/12/05 06:03:40;;;;;;;67.43;54.78;;;;;;;;;;5061513;28;20366;-72
2023/12/05 06:06:05;;;;;;;108.22;88.65;;;;;;;;;;5054985;28;20079;-72
2023/12/05 06:08:31;;;;;;;96.40;77.20;;;;;;;;;;5057684;28;20056;-72
2023/12/05 06:10:56;;;;;;;88.68;71.10;;;;;;;;;;5055885;28;20354;-71
2023/12/05 06:13:22;;;;;;;76.22;61.17;;;;;;;;;;5054182;28;20063;-72
2023/12/05 06:15:47;;;;;;;82.45;63.72;;;;;;;;;;5059323;28;20040;-71
2023/12/05 06:18:15;;;;;;;67.93;55.88;;;;;;;;;;5060263;28;20439;-74
2023/12/05 06:20:41;;;;;;;74.32;57.95;;;;;;;;;;5041775;28;20447;-74
2023/12/05 06:23:06;;;;;;;64.65;52.35;;;;;;;;;;5041735;28;20040;-73
2023/12/05 06:25:31;;;;;;;137.18;98.70;;;;;;;;;;5043509;28;20078;-72
2023/12/05 06:27:57;;;;;;;105.07;81.30;;;;;;;;;;5061151;28;20035;-71
2023/12/05 06:30:22;;;;;;;105.78;89.97;;;;;;;;;;5060734;28;20024;-71
2023/12/05 06:32:48;;;;;;;89.00;75.47;;;;;;;;;;5058241;28;20051;-74
2023/12/05 06:35:13;;;;;;;105.90;94.50;;;;;;;;;;5047463;28;20035;-75
2023/12/05 06:37:39;;;;;;;98.88;85.85;;;;;;;;;;5051410;28;20039;-75
2023/12/05 06:40:04;;;;;;;91.78;73.57;;;;;;;;;;5052988;28;20167;-74
2023/12/05 06:42:30;;;;;;;88.35;75.30;;;;;;;;;;5057400;28;20972;-75
2023/12/05 06:44:55;;;;;;;69.97;57.92;;;;;;;;;;5060639;28;20032;-74
2023/12/05 06:47:20;;;;;;;76.85;61.78;;;;;;;;;;5061423;28;20055;-75
2023/12/05 06:49:47;;;;;;;89.53;68.43;;;;;;;;;;5061488;28;20035;-74
2023/12/05 06:52:13;;;;;;;90.07;72.38;;;;;;;;;;5051525;28;20025;-77
2023/12/05 06:54:38;;;;;;;73.70;63.25;;;;;;;;;;5058052;28;20025;-75
2023/12/05 06:57:04;;;;;;;113.57;91.75;;;;;;;;;;5061259;28;20126;-73
2023/12/05 06:59:29;;;;;;;76.47;60.13;;;;;;;;;;5060598;28;20033;-73
2023/12/05 07:01:55;;;;;;;96.60;73.28;;;;;;;;;;5060707;28;20033;-74
2023/12/05 07:04:20;;;;;;;50.60;41.25;;;;;;;;;;5060418;28;20020;-74
2023/12/05 07:06:45;;;;;;;40.58;33.55;;;;;;;;;;5059644;28;20474;-74
2023/12/05 07:09:11;;;;;;;101.95;79.70;;;;;;;;;;5060898;28;20024;-74
2023/12/05 07:11:36;;;;;;;63.65;53.20;;;;;;;;;;5062386;28;20103;-75
2023/12/05 07:14:01;;;;;;;39.85;35.03;;;;;;;;;;5060738;28;20031;-74
2023/12/05 07:16:27;;;;;;;43.33;35.83;;;;;;;;;;5060377;28;20408;-74
2023/12/05 07:18:52;;;;;;;38.35;31.67;;;;;;;;;;5060176;28;20044;-74
2023/12/05 07:21:17;;;;;;;102.28;79.50;;;;;;;;;;5060740;28;20029;-75
2023/12/05 07:23:43;;;;;;;53.88;43.85;;;;;;;;;;5060566;28;20127;-75
2023/12/05 07:26:08;;;;;;;48.80;41.30;;;;;;;;;;5059515;28;20117;-75
2023/12/05 07:28:33;;;;;;;46.00;37.63;;;;;;;;;;5060299;28;20068;-74
2023/12/05 07:30:59;;;;;;;41.97;35.72;;;;;;;;;;5059756;28;20060;-74
2023/12/05 07:33:24;;;;;;;36.13;31.88;;;;;;;;;;5059229;28;20024;-74
2023/12/05 07:35:49;;;;;;;40.30;34.97;;;;;;;;;;5059207;28;20021;-74
2023/12/05 07:38:15;;;;;;;33.13;29.25;;;;;;;;;;5059520;28;20020;-74
2023/12/05 07:40:40;;;;;;;42.33;36.55;;;;;;;;;;5059100;28;20066;-75
2023/12/05 07:43:06;;;;;;;35.13;30.88;;;;;;;;;;5060613;28;20118;-73
2023/12/05 07:45:31;;;;;;;40.97;34.28;;;;;;;;;;5059414;28;20748;-75
2023/12/05 07:47:56;;;;;;;64.75;46.60;;;;;;;;;;5059776;28;20024;-75
2023/12/05 07:50:22;;;;;;;54.63;42.08;;;;;;;;;;5061080;28;20146;-75
2023/12/05 07:52:48;;;;;;;41.60;35.10;;;;;;;;;;5060355;28;20067;-75
2023/12/05 07:55:13;;;;;;;41.33;34.05;;;;;;;;;;5059810;28;20021;-75
2023/12/05 07:57:39;;;;;;;47.63;38.28;;;;;;;;;;5060262;28;20024;-75
2023/12/05 08:00:08;;;;;;;43.40;36.45;;;;;;;;;;5058578;28;20023;-75
2023/12/05 08:02:33;;;;;;;42.90;37.93;;;;;;;;;;5057279;28;20028;-75
2023/12/05 08:04:58;;;;;;;61.05;48.30;;;;;;;;;;5059226;28;20660;-75
2023/12/05 08:07:24;;;;;;;146.07;99.57;;;;;;;;;;5060522;28;20056;-74
2023/12/05 08:09:49;;;;;;;61.47;44.83;;;;;;;;;;5059310;28;20482;-75
2023/12/05 08:12:14;;;;;;;64.68;49.25;;;;;;;;;;5059467;28;20016;-74
2023/12/05 08:14:40;;;;;;;48.08;41.53;;;;;;;;;;5060289;28;20107;-75
2023/12/05 08:17:05;;;;;;;43.70;36.58;;;;;;;;;;5059345;28;20047;-75
2023/12/05 08:19:30;;;;;;;54.97;45.55;;;;;;;;;;5057586;28;20020;-75
2023/12/05 08:21:56;;;;;;;57.28;49.22;;;;;;;;;;5048039;28;20036;-74
2023/12/05 08:24:21;;;;;;;77.63;60.92;;;;;;;;;;5054395;28;20145;-74
2023/12/05 08:26:46;;;;;;;50.60;41.00;;;;;;;;;;5048162;28;20050;-74
2023/12/05 08:29:12;;;;;;;54.40;41.40;;;;;;;;;;5047285;28;20099;-74
2023/12/05 08:31:37;;;;;;;58.55;44.33;;;;;;;;;;5059488;28;20060;-76
2023/12/05 08:34:03;;;;;;;42.80;35.05;;;;;;;;;;5050334;28;20060;-72
2023/12/05 08:36:28;;;;;;;165.60;97.30;;;;;;;;;;5046167;28;20037;-73
2023/12/05 08:38:54;;;;;;;41.15;34.25;;;;;;;;;;5047396;28;20039;-73
2023/12/05 08:41:19;;;;;;;51.67;40.20;;;;;;;;;;5045680;28;20106;-73
2023/12/05 08:43:47;;;;;;;44.05;37.58;;;;;;;;;;5046812;28;20435;-73
2023/12/05 08:46:13;;;;;;;43.58;38.05;;;;;;;;;;5034993;28;20081;-74
2023/12/05 08:48:39;;;;;;;83.22;61.92;;;;;;;;;;5059223;28;20025;-73
2023/12/05 08:51:05;;;;;;;67.25;54.25;;;;;;;;;;5057018;28;20046;-74
2023/12/05 08:53:30;;;;;;;55.55;44.80;;;;;;;;;;5051581;28;20036;-75
2023/12/05 08:55:56;;;;;;;56.08;45.28;;;;;;;;;;5060087;28;20039;-74
2023/12/05 08:58:21;;;;;;;50.25;42.58;;;;;;;;;;5058859;28;20032;-73
2023/12/05 09:00:46;;;;;;;68.63;53.65;;;;;;;;;;5054595;28;20439;-73
2023/12/05 09:03:12;;;;;;;61.90;51.33;;;;;;;;;;5055160;28;20465;-72
2023/12/05 09:05:37;;;;;;;57.47;46.92;;;;;;;;;;5063160;28;20025;-73
2023/12/05 09:08:03;;;;;;;90.22;67.07;;;;;;;;;;5063709;28;20032;-73
2023/12/05 09:10:28;;;;;;;90.93;65.32;;;;;;;;;;5061774;28;20040;-75
2023/12/05 09:12:53;;;;;;;150.57;108.85;;;;;;;;;;5053169;28;20523;-73
2023/12/05 09:15:19;;;;;;;73.00;58.60;;;;;;;;;;5063944;28;20716;-73
2023/12/05 09:17:44;;;;;;;89.13;69.25;;;;;;;;;;5063160;28;21290;-73
2023/12/05 09:20:09;;;;;;;114.75;88.15;;;;;;;;;;5062088;28;20047;-72
2023/12/05 09:22:35;;;;;;;74.03;58.33;;;;;;;;;;5062652;28;20020;-72
2023/12/05 09:25:00;;;;;;;61.15;50.75;;;;;;;;;;5060923;28;20035;-72
2023/12/05 09:27:26;;;;;;;120.82;99.60;;;;;;;;;;5061279;28;20120;-72
2023/12/05 09:29:51;;;;;;;76.22;61.03;;;;;;;;;;5062575;28;20044;-72
2023/12/05 09:32:17;;;;;;;62.78;50.08;;;;;;;;;;5062839;28;20025;-75
2023/12/05 09:34:43;;;;;;;65.13;53.22;;;;;;;;;;5049859;28;20497;-73
2023/12/05 09:37:09;;;;;;;62.15;48.70;;;;;;;;;;5055958;28;20460;-72
2023/12/05 09:39:34;;;;;;;55.22;45.58;;;;;;;;;;5063532;28;20038;-72
2023/12/05 09:42:03;;;;;;;48.53;41.10;;;;;;;;;;5061950;28;20086;-74
2023/12/05 09:44:29;;;;;;;46.38;38.55;;;;;;;;;;5061882;28;20029;-73
2023/12/05 09:46:57;;;;;;;46.30;38.55;;;;;;;;;;5062581;28;20024;-74
2023/12/05 09:49:25;;;;;;;52.30;42.65;;;;;;;;;;5061845;28;20032;-73
2023/12/05 09:51:51;;;;;;;73.60;55.77;;;;;;;;;;5062652;28;20415;-73
2023/12/05 09:54:16;;;;;;;61.22;50.25;;;;;;;;;;5061011;28;20032;-74
2023/12/05 09:56:42;;;;;;;55.22;45.92;;;;;;;;;;5050096;28;20021;-73
2023/12/05 09:59:09;;;;;;;48.00;42.80;;;;;;;;;;5059799;28;20040;-72
2023/12/05 10:01:34;;;;;;;65.80;55.67;;;;;;;;;;5059544;28;20017;-74
2023/12/05 10:04:01;;;;;;;128.40;103.20;;;;;;;;;;5061922;28;20055;-72
2023/12/05 10:06:26;;;;;;;114.45;96.68;;;;;;;;;;5061530;28;20091;-72
2023/12/05 10:08:52;;;;;;;85.32;71.25;;;;;;;;;;5060488;28;20423;-72
2023/12/05 10:11:21;;;;;;;63.85;50.22;;;;;;;;;;5051245;28;20468;-76
2023/12/05 10:13:47;;;;;;;82.00;69.03;;;;;;;;;;5061370;28;20048;-72
2023/12/05 10:16:13;;;;;;;73.25;62.08;;;;;;;;;;5062654;28;20500;-74
2023/12/05 10:18:39;;;;;;;57.50;50.25;;;;;;;;;;5062303;28;20111;-77
2023/12/05 10:21:05;;;;;;;56.70;47.80;;;;;;;;;;5053715;28;20025;-72
2023/12/05 10:23:30;;;;;;;54.95;48.50;;;;;;;;;;5058032;28;20090;-72
2023/12/05 10:25:55;;;;;;;57.45;51.10;;;;;;;;;;5061387;28;20060;-73
2023/12/05 10:28:21;;;;;;;63.38;55.10;;;;;;;;;;5062146;28;20037;-72
2023/12/05 10:30:46;;;;;;;40.10;33.42;;;;;;;;;;5060106;28;20093;-74
2023/12/05 10:33:19;;;;;;;46.95;37.70;;;;;;;;;;5061564;28;20032;-75
2023/12/05 10:35:45;;;;;;;99.63;65.30;;;;;;;;;;5061595;28;20056;-73
2023/12/05 10:38:11;;;;;;;57.55;40.38;;;;;;;;;;5061131;28;20033;-74
2023/12/05 10:40:56;;;;;;;45.53;35.80;;;;;;;;;;5058270;28;20024;-74
2023/12/05 10:43:22;;;;;;;42.05;35.10;;;;;;;;;;5045846;28;20452;-73
2023/12/05 10:45:48;;;;;;;39.30;34.10;;;;;;;;;;5046681;28;20039;-74
2023/12/05 10:48:14;;;;;;;52.20;43.63;;;;;;;;;;5047468;28;20217;-72
2023/12/05 10:50:39;;;;;;;64.35;53.88;;;;;;;;;;5047979;28;20411;-73
2023/12/05 10:53:06;;;;;;;59.10;50.05;;;;;;;;;;5048076;28;20024;-73
2023/12/05 10:55:31;;;;;;;68.65;52.67;;;;;;;;;;5047080;28;20163;-72
2023/12/05 10:57:57;;;;;;;46.10;39.17;;;;;;;;;;5047122;28;20456;-73
2023/12/05 11:00:22;;;;;;;72.53;53.92;;;;;;;;;;5047657;28;20484;-76
2023/12/05 11:02:48;;;;;;;59.53;46.70;;;;;;;;;;5048412;28;20048;-71
2023/12/05 11:05:14;;;;;;;59.63;50.08;;;;;;;;;;5047168;28;20150;-75
2023/12/05 11:07:40;;;;;;;52.67;44.65;;;;;;;;;;5048856;28;20207;-73
2023/12/05 11:10:06;;;;;;;42.95;37.78;;;;;;;;;;5048140;28;20032;-73
2023/12/05 11:12:32;;;;;;;38.83;34.40;;;;;;;;;;5060478;28;20029;-75
2023/12/05 11:14:58;;;;;;;44.50;37.80;;;;;;;;;;5057047;28;20020;-76
2023/12/05 11:17:27;;;;;;;43.92;36.30;;;;;;;;;;5047311;28;20036;-74
2023/12/05 11:20:01;;;;;;;44.10;37.92;;;;;;;;;;5044070;28;20504;-74
2023/12/05 11:25:33;;;;;;;42.88;35.00;;;;;;;;;;5048336;28;20422;-74
2023/12/05 11:27:58;;;;;;;52.53;44.47;;;;;;;;;;5048182;28;20495;-73
2023/12/05 11:30:56;;;;;;;56.35;47.25;;;;;;;;;;5047456;28;20173;-72
2023/12/05 11:33:32;;;;;;;40.95;35.40;;;;;;;;;;4984604;28;20042;-75
2023/12/05 11:36:03;;;;;;;36.70;31.90;;;;;;;;;;4977423;28;20027;-73
2023/12/05 11:38:29;;;;;;;34.38;27.40;;;;;;;;;;4977790;28;20032;-75
2023/12/05 11:41:30;;;;;;;33.95;28.20;;;;;;;;;;4981308;28;20039;-72
2023/12/05 11:44:13;;;;;;;41.72;34.83;;;;;;;;;;4944571;28;20090;-75
2023/12/05 11:46:45;;;;;;;33.50;29.75;;;;;;;;;;4943491;28;20050;-75
2023/12/05 11:49:10;;;;;;;37.53;32.30;;;;;;;;;;4942939;28;20146;-73
2023/12/05 11:51:36;;;;;;;40.50;34.22;;;;;;;;;;4942813;28;20071;-72
2023/12/05 11:54:02;;;;;;;41.47;34.70;;;;;;;;;;4945694;28;20909;-73
2023/12/05 11:56:28;;;;;;;39.67;34.08;;;;;;;;;;4944548;28;20055;-76
2023/12/05 11:59:13;;;;;;;48.45;40.45;;;;;;;;;;4942253;28;20125;-72
2023/12/05 12:01:38;;;;;;;41.65;34.67;;;;;;;;;;4943769;28;20881;-72
2023/12/05 12:04:17;;;;;;;46.40;39.63;;;;;;;;;;4943279;28;20032;-75
2023/12/05 12:06:42;;;;;;;39.97;33.42;;;;;;;;;;4943802;28;20051;-71
2023/12/05 12:09:08;;;;;;;45.08;37.42;;;;;;;;;;4984945;28;20507;-73
2023/12/05 12:11:34;;;;;;;36.53;31.67;;;;;;;;;;5010815;28;20042;-75
2023/12/05 12:14:10;;;;;;;44.97;40.03;;;;;;;;;;5008489;28;20033;-73
2023/12/05 12:16:38;;;;;;;38.03;33.70;;;;;;;;;;5006022;28;20037;-74
2023/12/05 12:19:03;;;;;;;51.13;44.78;;;;;;;;;;5058492;28;20091;-72
2023/12/05 12:21:29;;;;;;;55.90;47.97;;;;;;;;;;5059248;28;20396;-72
2023/12/05 12:23:56;;;;;;;50.53;43.22;;;;;;;;;;5060624;28;20021;-73
2023/12/05 12:26:21;;;;;;;44.72;39.80;;;;;;;;;;5060555;28;20485;-73
2023/12/05 12:28:49;;;;;;;46.95;39.85;;;;;;;;;;5049071;28;20032;-74
2023/12/05 12:31:24;;;;;;;42.67;37.88;;;;;;;;;;5059877;28;20040;-73
2023/12/05 12:33:49;;;;;;;47.78;41.17;;;;;;;;;;5060115;28;20052;-72
2023/12/05 12:36:17;;;;;;;45.17;37.80;;;;;;;;;;5060152;28;20455;-72
2023/12/05 12:38:42;;;;;;;44.70;38.97;;;;;;;;;;5061531;28;20525;-72
2023/12/05 12:41:09;;;;;;;50.00;41.78;;;;;;;;;;5064335;28;20033;-74
2023/12/05 12:43:34;;;;;;;47.35;37.88;;;;;;;;;;5062745;28;20398;-72
2023/12/05 12:46:00;;;;;;;41.13;35.35;;;;;;;;;;5064343;28;20111;-73
2023/12/05 12:48:26;;;;;;;63.15;47.97;;;;;;;;;;5063309;28;20040;-72
2023/12/05 12:50:51;;;;;;;58.33;46.95;;;;;;;;;;5063938;28;20052;-72
2023/12/05 12:53:17;;;;;;;50.83;41.20;;;;;;;;;;5063666;28;20013;-73
2023/12/05 12:55:42;;;;;;;44.63;38.28;;;;;;;;;;5063282;28;20031;-74
2023/12/05 12:58:07;;;;;;;43.15;36.75;;;;;;;;;;5063178;28;20048;-72
2023/12/05 13:00:37;;;;;;;40.15;35.63;;;;;;;;;;5051854;28;20582;-74
2023/12/05 13:03:02;;;;;;;41.97;36.38;;;;;;;;;;5063472;28;20103;-72
2023/12/05 13:05:29;;;;;;;40.30;33.63;;;;;;;;;;5064388;28;20423;-73
2023/12/05 13:07:55;;;;;;;40.03;34.10;;;;;;;;;;5063382;28;20395;-72
2023/12/05 13:10:20;;;;;;;37.65;33.58;;;;;;;;;;5063425;28;20016;-72
2023/12/05 13:12:46;;;;;;;36.90;32.95;;;;;;;;;;5063888;28;20032;-72
2023/12/05 13:15:11;;;;;;;37.70;31.50;;;;;;;;;;5062740;28;20059;-72
2023/12/05 13:17:39;;;;;;;35.53;30.55;;;;;;;;;;5063163;28;20378;-74
2023/12/05 13:20:07;;;;;;;34.97;28.90;;;;;;;;;;5063341;28;20024;-73
2023/12/05 13:22:32;;;;;;;33.63;29.35;;;;;;;;;;5046974;28;20391;-72
2023/12/05 13:24:57;;;;;;;35.30;29.30;;;;;;;;;;5063879;28;20123;-74
2023/12/05 13:27:23;;;;;;;32.53;28.83;;;;;;;;;;5064021;28;20386;-72
2023/12/05 13:29:51;;;;;;;31.70;28.10;;;;;;;;;;5064308;28;20300;-73
2023/12/05 13:32:18;;;;;;;38.45;34.42;;;;;;;;;;5063603;28;20048;-73
2023/12/05 13:34:43;;;;;;;37.95;33.85;;;;;;;;;;5063522;28;20024;-72
2023/12/05 13:37:09;;;;;;;37.88;31.52;;;;;;;;;;5062314;28;20063;-74
2023/12/05 13:39:34;;;;;;;37.60;33.53;;;;;;;;;;5064889;28;20457;-72
2023/12/05 13:41:59;;;;;;;35.78;31.77;;;;;;;;;;5061224;28;20110;-72
2023/12/05 13:44:25;;;;;;;33.72;29.38;;;;;;;;;;5047027;28;20135;-73
2023/12/05 13:46:50;;;;;;;37.13;32.80;;;;;;;;;;5047514;28;20107;-75
2023/12/05 13:49:16;;;;;;;39.20;35.00;;;;;;;;;;5050022;28;20029;-73
2023/12/05 13:51:43;;;;;;;42.72;38.25;;;;;;;;;;5055207;28;20403;-74
2023/12/05 13:54:09;;;;;;;49.72;44.22;;;;;;;;;;5048747;28;20088;-73
2023/12/05 13:56:34;;;;;;;48.97;43.78;;;;;;;;;;5049552;28;20040;-72
2023/12/05 13:59:00;;;;;;;34.80;31.05;;;;;;;;;;5056069;28;20439;-73
2023/12/05 14:01:25;;;;;;;34.28;30.50;;;;;;;;;;5062067;28;20032;-72
2023/12/05 14:03:51;;;;;;;41.03;36.78;;;;;;;;;;5063498;28;20131;-75
2023/12/05 14:06:16;;;;;;;61.10;54.60;;;;;;;;;;5062488;28;20356;-72
2023/12/05 14:08:41;;;;;;;74.53;64.82;;;;;;;;;;5053879;28;20351;-76
2023/12/05 14:11:07;;;;;;;70.53;57.28;;;;;;;;;;5055668;28;20450;-72
2023/12/05 14:13:33;;;;;;;67.90;55.05;;;;;;;;;;5061608;28;20420;-72